sensor_id;sensor_type;location;lat;lon;timestamp;P1;durP1;ratioP1;P2;durP2;ratioP2
70444;SDS011;57902;49.638;11.070;2023-09-08T00:02:54;6.65;;;3.22;;
70444;SDS011;57902;49.638;11.070;2023-09-08T00:05:24;5.90;;;3.25;;
70444;SDS011;57902;49.638;11.070;2023-09-08T00:08:23;9.98;;;3.60;;
70444;SDS011;57902;49.638;11.070;2023-09-08T00:10:58;8.50;;;3.78;;
70444;SDS011;57902;49.638;11.070;2023-09-08T00:13:30;9.25;;;3.53;;
70444;SDS011;57902;49.638;11.070;2023-09-08T00:16:00;7.90;;;3.53;;
70444;SDS011;57902;49.638;11.070;2023-09-08T00:18:38;8.05;;;3.58;;
70444;SDS011;57902;49.638;11.070;2023-09-08T00:21:14;6.80;;;3.60;;
70444;SDS011;57902;49.638;11.070;2023-09-08T00:23:51;7.00;;;3.45;;
70444;SDS011;57902;49.638;11.070;2023-09-08T00:26:26;8.98;;;3.80;;
70444;SDS011;57902;49.638;11.070;2023-09-08T00:28:59;9.45;;;3.90;;
70444;SDS011;57902;49.638;11.070;2023-09-08T00:31:35;7.20;;;3.55;;
70444;SDS011;57902;49.638;11.070;2023-09-08T00:34:07;9.15;;;3.58;;
70444;SDS011;57902;49.638;11.070;2023-09-08T00:36:45;7.55;;;3.15;;
70444;SDS011;57902;49.638;11.070;2023-09-08T00:39:20;7.32;;;3.80;;
70444;SDS011;57902;49.638;11.070;2023-09-08T00:41:52;7.13;;;3.30;;
70444;SDS011;57902;49.638;11.070;2023-09-08T00:44:27;7.45;;;3.67;;
70444;SDS011;57902;49.638;11.070;2023-09-08T00:47:11;6.78;;;4.00;;
70444;SDS011;57902;49.638;11.070;2023-09-08T00:49:51;8.65;;;3.85;;
70444;SDS011;57902;49.638;11.070;2023-09-08T00:52:31;7.68;;;3.25;;
70444;SDS011;57902;49.638;11.070;2023-09-08T00:55:07;8.95;;;3.80;;
70444;SDS011;57902;49.638;11.070;2023-09-08T00:57:54;8.70;;;3.33;;
70444;SDS011;57902;49.638;11.070;2023-09-08T01:07:11;6.40;;;3.08;;
70444;SDS011;57902;49.638;11.070;2023-09-08T01:10:05;6.20;;;3.17;;
70444;SDS011;57902;49.638;11.070;2023-09-08T01:13:06;8.05;;;3.90;;
70444;SDS011;57902;49.638;11.070;2023-09-08T01:19:47;8.48;;;3.53;;
70444;SDS011;57902;49.638;11.070;2023-09-08T01:26:47;6.18;;;3.10;;
70444;SDS011;57902;49.638;11.070;2023-09-08T01:29:58;6.28;;;3.10;;
70444;SDS011;57902;49.638;11.070;2023-09-08T01:33:10;7.35;;;3.08;;
70444;SDS011;57902;49.638;11.070;2023-09-08T01:46:55;6.40;;;3.10;;
70444;SDS011;57902;49.638;11.070;2023-09-08T01:50:25;5.88;;;3.10;;
70444;SDS011;57902;49.638;11.070;2023-09-08T01:53:21;8.40;;;3.30;;
70444;SDS011;57902;49.638;11.070;2023-09-08T01:56:05;6.47;;;3.05;;
70444;SDS011;57902;49.638;11.070;2023-09-08T01:58:55;7.85;;;3.40;;
70444;SDS011;57902;49.638;11.070;2023-09-08T02:01:44;7.25;;;3.20;;
70444;SDS011;57902;49.638;11.070;2023-09-08T02:04:38;7.50;;;3.15;;
70444;SDS011;57902;49.638;11.070;2023-09-08T02:07:32;8.38;;;3.30;;
70444;SDS011;57902;49.638;11.070;2023-09-08T02:10:34;7.72;;;2.92;;
70444;SDS011;57902;49.638;11.070;2023-09-08T02:13:07;7.10;;;3.10;;
70444;SDS011;57902;49.638;11.070;2023-09-08T02:16:12;6.00;;;2.80;;
70444;SDS011;57902;49.638;11.070;2023-09-08T02:19:17;6.10;;;3.15;;
70444;SDS011;57902;49.638;11.070;2023-09-08T02:22:11;5.68;;;2.78;;
70444;SDS011;57902;49.638;11.070;2023-09-08T02:24:58;7.68;;;3.10;;
70444;SDS011;57902;49.638;11.070;2023-09-08T02:27:58;7.75;;;3.05;;
70444;SDS011;57902;49.638;11.070;2023-09-08T02:30:47;6.63;;;2.92;;
70444;SDS011;57902;49.638;11.070;2023-09-08T02:33:57;10.48;;;3.03;;
70444;SDS011;57902;49.638;11.070;2023-09-08T02:54:36;7.60;;;3.38;;
70444;SDS011;57902;49.638;11.070;2023-09-08T03:01:18;5.75;;;2.88;;
70444;SDS011;57902;49.638;11.070;2023-09-08T03:03:58;6.07;;;2.88;;
70444;SDS011;57902;49.638;11.070;2023-09-08T03:06:46;6.65;;;3.15;;
70444;SDS011;57902;49.638;11.070;2023-09-08T03:17:35;7.40;;;2.97;;
70444;SDS011;57902;49.638;11.070;2023-09-08T03:20:29;6.82;;;3.17;;
70444;SDS011;57902;49.638;11.070;2023-09-08T03:23:22;7.60;;;2.90;;
70444;SDS011;57902;49.638;11.070;2023-09-08T03:26:59;12.70;;;3.15;;
70444;SDS011;57902;49.638;11.070;2023-09-08T03:29:57;7.80;;;3.20;;
70444;SDS011;57902;49.638;11.070;2023-09-08T03:32:41;7.50;;;3.15;;
70444;SDS011;57902;49.638;11.070;2023-09-08T03:35:26;7.10;;;3.30;;
70444;SDS011;57902;49.638;11.070;2023-09-08T03:38:42;6.07;;;2.90;;
70444;SDS011;57902;49.638;11.070;2023-09-08T03:41:36;5.55;;;2.90;;
70444;SDS011;57902;49.638;11.070;2023-09-08T03:44:15;5.28;;;2.78;;
70444;SDS011;57902;49.638;11.070;2023-09-08T03:46:57;6.05;;;3.10;;
70444;SDS011;57902;49.638;11.070;2023-09-08T03:50:05;6.57;;;3.10;;
70444;SDS011;57902;49.638;11.070;2023-09-08T03:53:03;5.47;;;3.08;;
70444;SDS011;57902;49.638;11.070;2023-09-08T03:55:45;8.60;;;3.10;;
70444;SDS011;57902;49.638;11.070;2023-09-08T03:58:28;6.63;;;3.00;;
70444;SDS011;57902;49.638;11.070;2023-09-08T04:01:27;7.85;;;3.38;;
70444;SDS011;57902;49.638;11.070;2023-09-08T04:04:04;7.32;;;3.20;;
70444;SDS011;57902;49.638;11.070;2023-09-08T04:06:38;6.00;;;2.80;;
70444;SDS011;57902;49.638;11.070;2023-09-08T04:09:07;7.35;;;3.25;;
70444;SDS011;57902;49.638;11.070;2023-09-08T04:11:56;6.15;;;2.78;;
70444;SDS011;57902;49.638;11.070;2023-09-08T04:14:28;7.20;;;3.20;;
70444;SDS011;57902;49.638;11.070;2023-09-08T04:17:13;6.18;;;2.83;;
70444;SDS011;57902;49.638;11.070;2023-09-08T04:20:03;6.95;;;3.33;;
70444;SDS011;57902;49.638;11.070;2023-09-08T04:22:54;5.75;;;3.28;;
70444;SDS011;57902;49.638;11.070;2023-09-08T04:25:51;9.85;;;3.15;;
70444;SDS011;57902;49.638;11.070;2023-09-08T04:28:33;8.75;;;3.63;;
70444;SDS011;57902;49.638;11.070;2023-09-08T04:31:10;6.60;;;2.85;;
70444;SDS011;57902;49.638;11.070;2023-09-08T04:33:57;6.50;;;3.13;;
70444;SDS011;57902;49.638;11.070;2023-09-08T04:36:50;6.50;;;3.00;;
70444;SDS011;57902;49.638;11.070;2023-09-08T04:39:26;6.50;;;2.85;;
70444;SDS011;57902;49.638;11.070;2023-09-08T04:41:53;7.25;;;3.60;;
70444;SDS011;57902;49.638;11.070;2023-09-08T04:44:33;7.22;;;3.05;;
70444;SDS011;57902;49.638;11.070;2023-09-08T04:47:19;8.32;;;3.35;;
70444;SDS011;57902;49.638;11.070;2023-09-08T04:49:53;8.25;;;2.90;;
70444;SDS011;57902;49.638;11.070;2023-09-08T04:52:52;6.03;;;2.97;;
70444;SDS011;57902;49.638;11.070;2023-09-08T04:55:19;9.52;;;3.35;;
70444;SDS011;57902;49.638;11.070;2023-09-08T04:58:01;8.05;;;3.40;;
70444;SDS011;57902;49.638;11.070;2023-09-08T05:00:30;7.47;;;3.35;;
70444;SDS011;57902;49.638;11.070;2023-09-08T05:03:05;6.30;;;3.13;;
70444;SDS011;57902;49.638;11.070;2023-09-08T05:05:34;5.57;;;3.05;;
70444;SDS011;57902;49.638;11.070;2023-09-08T05:08:01;7.70;;;3.13;;
70444;SDS011;57902;49.638;11.070;2023-09-08T05:10:28;7.95;;;3.20;;
70444;SDS011;57902;49.638;11.070;2023-09-08T05:12:54;7.68;;;3.30;;
70444;SDS011;57902;49.638;11.070;2023-09-08T05:15:21;6.95;;;3.00;;
70444;SDS011;57902;49.638;11.070;2023-09-08T05:17:50;9.38;;;3.50;;
70444;SDS011;57902;49.638;11.070;2023-09-08T05:20:26;7.53;;;3.08;;
70444;SDS011;57902;49.638;11.070;2023-09-08T05:22:56;7.80;;;3.40;;
70444;SDS011;57902;49.638;11.070;2023-09-08T05:25:36;7.35;;;3.17;;
70444;SDS011;57902;49.638;11.070;2023-09-08T05:28:03;7.75;;;3.22;;
70444;SDS011;57902;49.638;11.070;2023-09-08T05:30:32;9.05;;;3.55;;
70444;SDS011;57902;49.638;11.070;2023-09-08T05:33:05;6.65;;;3.30;;
70444;SDS011;57902;49.638;11.070;2023-09-08T05:35:33;7.47;;;3.47;;
70444;SDS011;57902;49.638;11.070;2023-09-08T05:38:00;8.15;;;3.30;;
70444;SDS011;57902;49.638;11.070;2023-09-08T05:40:26;8.35;;;3.38;;
70444;SDS011;57902;49.638;11.070;2023-09-08T05:42:53;8.65;;;3.65;;
70444;SDS011;57902;49.638;11.070;2023-09-08T05:45:25;6.90;;;3.67;;
70444;SDS011;57902;49.638;11.070;2023-09-08T05:48:37;7.93;;;3.33;;
70444;SDS011;57902;49.638;11.070;2023-09-08T05:51:05;5.78;;;3.03;;
70444;SDS011;57902;49.638;11.070;2023-09-08T05:53:52;8.45;;;3.70;;
70444;SDS011;57902;49.638;11.070;2023-09-08T06:00:32;7.22;;;3.70;;
70444;SDS011;57902;49.638;11.070;2023-09-08T06:03:24;8.40;;;3.97;;
70444;SDS011;57902;49.638;11.070;2023-09-08T06:09:59;15.73;;;4.90;;
70444;SDS011;57902;49.638;11.070;2023-09-08T06:12:58;9.23;;;4.07;;
70444;SDS011;57902;49.638;11.070;2023-09-08T06:15:44;9.70;;;3.80;;
70444;SDS011;57902;49.638;11.070;2023-09-08T06:18:37;9.45;;;4.07;;
70444;SDS011;57902;49.638;11.070;2023-09-08T06:21:45;9.98;;;4.00;;
70444;SDS011;57902;49.638;11.070;2023-09-08T06:24:48;8.43;;;4.25;;
70444;SDS011;57902;49.638;11.070;2023-09-08T10:29:26;5.30;;;2.75;;
70444;SDS011;57902;49.638;11.070;2023-09-08T11:34:53;5.57;;;2.55;;
70444;SDS011;57902;49.638;11.070;2023-09-08T11:37:36;6.10;;;2.65;;
70444;SDS011;57902;49.638;11.070;2023-09-08T11:40:13;8.80;;;3.05;;
70444;SDS011;57902;49.638;11.070;2023-09-08T11:43:07;6.40;;;2.67;;
70444;SDS011;57902;49.638;11.070;2023-09-08T11:45:48;6.25;;;3.10;;
70444;SDS011;57902;49.638;11.070;2023-09-08T11:48:24;7.47;;;3.08;;
70444;SDS011;57902;49.638;11.070;2023-09-08T11:51:27;5.82;;;3.03;;
70444;SDS011;57902;49.638;11.070;2023-09-08T11:54:05;6.88;;;2.92;;
70444;SDS011;57902;49.638;11.070;2023-09-08T11:59:18;6.68;;;2.90;;
70444;SDS011;57902;49.638;11.070;2023-09-08T12:01:48;6.65;;;2.83;;
70444;SDS011;57902;49.638;11.070;2023-09-08T12:04:34;6.65;;;3.10;;
70444;SDS011;57902;49.638;11.070;2023-09-08T12:07:01;6.47;;;2.80;;
70444;SDS011;57902;49.638;11.070;2023-09-08T12:09:28;5.38;;;2.70;;
70444;SDS011;57902;49.638;11.070;2023-09-08T12:11:55;6.80;;;2.60;;
70444;SDS011;57902;49.638;11.070;2023-09-08T12:14:21;8.15;;;2.92;;
70444;SDS011;57902;49.638;11.070;2023-09-08T12:16:48;6.80;;;3.10;;
70444;SDS011;57902;49.638;11.070;2023-09-08T12:19:30;7.18;;;2.83;;
70444;SDS011;57902;49.638;11.070;2023-09-08T12:22:01;6.18;;;2.83;;
70444;SDS011;57902;49.638;11.070;2023-09-08T12:27:18;5.90;;;2.75;;
70444;SDS011;57902;49.638;11.070;2023-09-08T12:29:54;6.50;;;3.00;;
70444;SDS011;57902;49.638;11.070;2023-09-08T12:32:22;8.65;;;2.78;;
70444;SDS011;57902;49.638;11.070;2023-09-08T12:34:52;6.05;;;2.70;;
70444;SDS011;57902;49.638;11.070;2023-09-08T12:37:33;10.52;;;2.70;;
70444;SDS011;57902;49.638;11.070;2023-09-08T12:43:31;6.40;;;2.97;;
70444;SDS011;57902;49.638;11.070;2023-09-08T12:46:19;7.22;;;2.78;;
70444;SDS011;57902;49.638;11.070;2023-09-08T12:49:14;6.13;;;2.85;;
70444;SDS011;57902;49.638;11.070;2023-09-08T12:55:48;7.20;;;2.85;;
70444;SDS011;57902;49.638;11.070;2023-09-08T12:59:17;6.75;;;2.75;;
70444;SDS011;57902;49.638;11.070;2023-09-08T13:09:16;5.35;;;2.80;;
70444;SDS011;57902;49.638;11.070;2023-09-08T13:12:51;5.20;;;2.90;;
70444;SDS011;57902;49.638;11.070;2023-09-08T13:15:35;5.35;;;2.60;;
70444;SDS011;57902;49.638;11.070;2023-09-08T13:18:48;6.78;;;2.47;;
70444;SDS011;57902;49.638;11.070;2023-09-08T13:21:32;5.50;;;2.75;;
70444;SDS011;57902;49.638;11.070;2023-09-08T13:24:59;5.25;;;2.30;;
70444;SDS011;57902;49.638;11.070;2023-09-08T13:30:43;6.43;;;2.58;;
70444;SDS011;57902;49.638;11.070;2023-09-08T13:33:31;6.65;;;2.40;;
70444;SDS011;57902;49.638;11.070;2023-09-08T13:39:09;7.43;;;2.40;;
70444;SDS011;57902;49.638;11.070;2023-09-08T13:41:58;5.07;;;2.58;;
70444;SDS011;57902;49.638;11.070;2023-09-08T13:45:31;6.88;;;2.90;;
70444;SDS011;57902;49.638;11.070;2023-09-08T13:48:22;6.88;;;2.40;;
70444;SDS011;57902;49.638;11.070;2023-09-08T13:51:15;7.65;;;2.63;;
70444;SDS011;57902;49.638;11.070;2023-09-08T13:53:52;8.80;;;2.78;;
70444;SDS011;57902;49.638;11.070;2023-09-08T13:56:44;5.47;;;2.70;;
70444;SDS011;57902;49.638;11.070;2023-09-08T13:59:34;6.78;;;2.80;;
70444;SDS011;57902;49.638;11.070;2023-09-08T14:02:09;6.85;;;2.80;;
70444;SDS011;57902;49.638;11.070;2023-09-08T14:04:46;6.50;;;2.70;;
70444;SDS011;57902;49.638;11.070;2023-09-08T14:07:20;6.22;;;2.67;;
70444;SDS011;57902;49.638;11.070;2023-09-08T14:10:06;4.55;;;2.35;;
70444;SDS011;57902;49.638;11.070;2023-09-08T14:17:35;7.50;;;2.65;;
70444;SDS011;57902;49.638;11.070;2023-09-08T14:20:22;7.68;;;3.00;;
70444;SDS011;57902;49.638;11.070;2023-09-08T14:23:15;9.52;;;3.00;;
70444;SDS011;57902;49.638;11.070;2023-09-08T14:30:19;7.80;;;2.75;;
70444;SDS011;57902;49.638;11.070;2023-09-08T14:36:27;6.25;;;2.70;;
70444;SDS011;57902;49.638;11.070;2023-09-08T14:42:50;4.88;;;2.63;;
70444;SDS011;57902;49.638;11.070;2023-09-08T14:49:12;4.93;;;2.50;;
70444;SDS011;57902;49.638;11.070;2023-09-08T14:59:38;5.53;;;2.60;;
70444;SDS011;57902;49.638;11.070;2023-09-08T15:02:43;5.53;;;2.80;;
70444;SDS011;57902;49.638;11.070;2023-09-08T15:05:43;6.43;;;2.83;;
70444;SDS011;57902;49.638;11.070;2023-09-08T15:08:50;6.13;;;2.70;;
70444;SDS011;57902;49.638;11.070;2023-09-08T15:19:34;5.72;;;2.70;;
70444;SDS011;57902;49.638;11.070;2023-09-08T15:25:59;5.55;;;2.60;;
70444;SDS011;57902;49.638;11.070;2023-09-08T15:28:48;5.28;;;2.30;;
70444;SDS011;57902;49.638;11.070;2023-09-08T15:46:16;6.63;;;2.50;;
70444;SDS011;57902;49.638;11.070;2023-09-08T15:56:47;5.53;;;2.53;;
70444;SDS011;57902;49.638;11.070;2023-09-08T15:59:34;5.47;;;2.65;;
70444;SDS011;57902;49.638;11.070;2023-09-08T16:20:52;6.85;;;2.55;;
70444;SDS011;57902;49.638;11.070;2023-09-08T16:31:15;7.70;;;2.80;;
70444;SDS011;57902;49.638;11.070;2023-09-08T16:50:09;7.22;;;2.63;;
70444;SDS011;57902;49.638;11.070;2023-09-08T16:54:09;6.18;;;2.97;;
70444;SDS011;57902;49.638;11.070;2023-09-08T17:04:13;5.88;;;3.17;;
70444;SDS011;57902;49.638;11.070;2023-09-08T17:07:54;9.10;;;3.40;;
70444;SDS011;57902;49.638;11.070;2023-09-08T17:11:15;5.90;;;2.72;;
70444;SDS011;57902;49.638;11.070;2023-09-08T17:22:21;5.90;;;2.80;;
70444;SDS011;57902;49.638;11.070;2023-09-08T17:28:30;7.30;;;3.20;;
70444;SDS011;57902;49.638;11.070;2023-09-08T17:31:17;7.60;;;2.92;;
70444;SDS011;57902;49.638;11.070;2023-09-08T17:34:49;10.52;;;4.18;;
70444;SDS011;57902;49.638;11.070;2023-09-08T17:37:51;9.15;;;4.72;;
70444;SDS011;57902;49.638;11.070;2023-09-08T17:44:47;11.73;;;3.40;;
70444;SDS011;57902;49.638;11.070;2023-09-08T17:47:29;21.50;;;3.42;;
70444;SDS011;57902;49.638;11.070;2023-09-08T17:56:17;9.40;;;3.15;;
70444;SDS011;57902;49.638;11.070;2023-09-08T17:59:25;9.10;;;3.00;;
70444;SDS011;57902;49.638;11.070;2023-09-08T18:02:52;8.43;;;3.47;;
70444;SDS011;57902;49.638;11.070;2023-09-08T18:05:51;13.23;;;3.60;;
70444;SDS011;57902;49.638;11.070;2023-09-08T18:08:45;9.20;;;3.30;;
70444;SDS011;57902;49.638;11.070;2023-09-08T18:11:24;10.10;;;3.33;;
70444;SDS011;57902;49.638;11.070;2023-09-08T18:14:15;12.48;;;3.70;;
70444;SDS011;57902;49.638;11.070;2023-09-08T18:19:55;11.27;;;3.60;;
70444;SDS011;57902;49.638;11.070;2023-09-08T18:22:46;9.90;;;3.15;;
70444;SDS011;57902;49.638;11.070;2023-09-08T18:28:42;13.43;;;3.78;;
70444;SDS011;57902;49.638;11.070;2023-09-08T18:31:57;12.50;;;3.90;;
70444;SDS011;57902;49.638;11.070;2023-09-08T18:45:50;7.63;;;3.00;;
70444;SDS011;57902;49.638;11.070;2023-09-08T18:48:53;6.32;;;2.90;;
70444;SDS011;57902;49.638;11.070;2023-09-08T18:51:44;7.43;;;3.03;;
70444;SDS011;57902;49.638;11.070;2023-09-08T18:55:22;6.88;;;3.13;;
70444;SDS011;57902;49.638;11.070;2023-09-08T18:58:35;6.63;;;3.03;;
70444;SDS011;57902;49.638;11.070;2023-09-08T19:04:25;8.15;;;3.20;;
70444;SDS011;57902;49.638;11.070;2023-09-08T19:07:29;9.45;;;3.60;;
70444;SDS011;57902;49.638;11.070;2023-09-08T19:21:21;8.10;;;3.50;;
70444;SDS011;57902;49.638;11.070;2023-09-08T19:27:44;11.35;;;3.75;;
70444;SDS011;57902;49.638;11.070;2023-09-08T19:34:40;12.23;;;3.80;;
70444;SDS011;57902;49.638;11.070;2023-09-08T19:38:00;9.18;;;3.50;;
70444;SDS011;57902;49.638;11.070;2023-09-08T19:47:01;11.57;;;3.53;;
70444;SDS011;57902;49.638;11.070;2023-09-08T20:08:30;8.10;;;3.53;;
70444;SDS011;57902;49.638;11.070;2023-09-08T20:11:51;8.45;;;3.95;;
70444;SDS011;57902;49.638;11.070;2023-09-08T20:14:17;9.65;;;3.38;;
70444;SDS011;57902;49.638;11.070;2023-09-08T20:16:44;20.20;;;4.07;;
70444;SDS011;57902;49.638;11.070;2023-09-08T20:19:11;19.33;;;4.03;;
70444;SDS011;57902;49.638;11.070;2023-09-08T20:21:37;18.42;;;3.50;;
70444;SDS011;57902;49.638;11.070;2023-09-08T20:24:04;10.35;;;3.30;;
70444;SDS011;57902;49.638;11.070;2023-09-08T20:26:32;16.70;;;3.40;;
70444;SDS011;57902;49.638;11.070;2023-09-08T20:28:59;13.40;;;3.55;;
70444;SDS011;57902;49.638;11.070;2023-09-08T20:31:25;11.60;;;3.40;;
70444;SDS011;57902;49.638;11.070;2023-09-08T20:33:53;8.98;;;3.75;;
70444;SDS011;57902;49.638;11.070;2023-09-08T20:36:20;8.85;;;3.10;;
70444;SDS011;57902;49.638;11.070;2023-09-08T20:38:46;8.98;;;3.25;;
70444;SDS011;57902;49.638;11.070;2023-09-08T20:41:13;9.07;;;3.28;;
70444;SDS011;57902;49.638;11.070;2023-09-08T20:43:40;7.45;;;3.15;;
70444;SDS011;57902;49.638;11.070;2023-09-08T20:46:07;7.05;;;3.22;;
70444;SDS011;57902;49.638;11.070;2023-09-08T20:48:34;9.32;;;3.80;;
70444;SDS011;57902;49.638;11.070;2023-09-08T20:55:10;11.27;;;3.35;;
70444;SDS011;57902;49.638;11.070;2023-09-08T20:58:03;9.60;;;3.35;;
70444;SDS011;57902;49.638;11.070;2023-09-08T21:04:43;8.05;;;3.35;;
70444;SDS011;57902;49.638;11.070;2023-09-08T21:08:00;9.18;;;3.47;;
70444;SDS011;57902;49.638;11.070;2023-09-08T21:11:09;7.22;;;3.20;;
70444;SDS011;57902;49.638;11.070;2023-09-08T21:21:46;11.93;;;3.65;;
70444;SDS011;57902;49.638;11.070;2023-09-08T21:28:01;7.55;;;3.22;;
70444;SDS011;57902;49.638;11.070;2023-09-08T21:52:42;8.00;;;3.08;;
70444;SDS011;57902;49.638;11.070;2023-09-08T21:58:13;9.38;;;3.63;;
70444;SDS011;57902;49.638;11.070;2023-09-08T22:00:40;7.93;;;3.53;;
70444;SDS011;57902;49.638;11.070;2023-09-08T22:03:07;7.68;;;3.17;;
70444;SDS011;57902;49.638;11.070;2023-09-08T22:05:34;7.78;;;3.15;;
70444;SDS011;57902;49.638;11.070;2023-09-08T22:08:02;7.97;;;3.70;;
70444;SDS011;57902;49.638;11.070;2023-09-08T22:10:29;9.80;;;3.60;;
70444;SDS011;57902;49.638;11.070;2023-09-08T22:12:56;8.25;;;3.65;;
70444;SDS011;57902;49.638;11.070;2023-09-08T22:15:22;7.75;;;3.33;;
70444;SDS011;57902;49.638;11.070;2023-09-08T22:17:49;7.97;;;3.80;;
70444;SDS011;57902;49.638;11.070;2023-09-08T22:20:16;8.13;;;3.50;;
70444;SDS011;57902;49.638;11.070;2023-09-08T22:22:44;10.13;;;3.70;;
70444;SDS011;57902;49.638;11.070;2023-09-08T22:25:16;8.50;;;3.72;;
70444;SDS011;57902;49.638;11.070;2023-09-08T22:35:28;8.23;;;3.88;;
70444;SDS011;57902;49.638;11.070;2023-09-08T22:38:11;8.23;;;3.70;;
70444;SDS011;57902;49.638;11.070;2023-09-08T22:41:08;8.45;;;3.92;;
70444;SDS011;57902;49.638;11.070;2023-09-08T22:44:17;8.32;;;3.83;;
70444;SDS011;57902;49.638;11.070;2023-09-08T22:49:56;7.68;;;3.70;;
70444;SDS011;57902;49.638;11.070;2023-09-08T22:52:24;8.27;;;4.10;;
70444;SDS011;57902;49.638;11.070;2023-09-08T22:54:52;7.63;;;3.90;;
70444;SDS011;57902;49.638;11.070;2023-09-08T22:57:31;7.72;;;3.55;;
70444;SDS011;57902;49.638;11.070;2023-09-08T22:59:58;7.38;;;3.20;;
70444;SDS011;57902;49.638;11.070;2023-09-08T23:02:26;6.97;;;3.60;;
70444;SDS011;57902;49.638;11.070;2023-09-08T23:04:53;8.32;;;3.90;;
70444;SDS011;57902;49.638;11.070;2023-09-08T23:07:20;7.25;;;3.80;;
70444;SDS011;57902;49.638;11.070;2023-09-08T23:09:46;8.05;;;3.78;;
70444;SDS011;57902;49.638;11.070;2023-09-08T23:12:13;7.78;;;3.65;;
70444;SDS011;57902;49.638;11.070;2023-09-08T23:14:39;7.07;;;3.60;;
70444;SDS011;57902;49.638;11.070;2023-09-08T23:17:19;8.10;;;3.92;;
70444;SDS011;57902;49.638;11.070;2023-09-08T23:19:47;8.30;;;4.25;;
70444;SDS011;57902;49.638;11.070;2023-09-08T23:22:13;8.15;;;3.85;;
70444;SDS011;57902;49.638;11.070;2023-09-08T23:24:40;7.60;;;3.78;;
70444;SDS011;57902;49.638;11.070;2023-09-08T23:27:06;7.22;;;3.53;;
70444;SDS011;57902;49.638;11.070;2023-09-08T23:29:34;7.65;;;3.60;;
70444;SDS011;57902;49.638;11.070;2023-09-08T23:32:01;8.75;;;4.00;;
70444;SDS011;57902;49.638;11.070;2023-09-08T23:38:20;6.90;;;3.92;;
